createdAt,value
2018-11-12T00:01:04.074Z,0.40
2018-11-12T00:03:39.525Z,1.05
2018-11-12T00:06:20.987Z,0.60
2018-11-12T00:09:05.499Z,0.88
2018-11-12T00:11:46.838Z,0.40
2018-11-12T00:14:22.291Z,0.40
2018-11-12T00:16:57.650Z,0.50
2018-11-12T00:19:32.985Z,0.78
2018-11-12T00:22:08.363Z,0.40
2018-11-12T00:24:43.766Z,0.40
2018-11-12T00:27:19.213Z,0.50
2018-11-12T00:29:54.785Z,0.80
2018-11-12T00:32:30.343Z,0.68
2018-11-12T00:35:06.584Z,0.40
2018-11-12T00:37:42.774Z,1.02
2018-11-12T00:40:18.500Z,1.95
2018-11-12T00:42:53.964Z,0.62
2018-11-12T00:45:29.372Z,0.50
2018-11-12T00:48:04.928Z,0.40
2018-11-12T00:50:40.363Z,0.40
2018-11-12T00:53:15.590Z,0.40
2018-11-12T00:55:50.811Z,0.40
2018-11-12T00:58:26.444Z,0.40
2018-11-12T01:01:02.300Z,0.82
2018-11-12T01:03:37.982Z,1.52
2018-11-12T01:06:13.311Z,0.50
2018-11-12T01:08:48.684Z,0.60
2018-11-12T01:11:24.110Z,0.40
2018-11-12T01:13:59.351Z,1.35
2018-11-12T01:16:34.674Z,0.72
2018-11-12T01:19:10.230Z,1.02
2018-11-12T01:21:45.562Z,2.17
2018-11-12T01:24:20.754Z,0.40
2018-11-12T01:26:56.054Z,0.60
2018-11-12T01:29:31.512Z,0.70
2018-11-12T01:32:06.734Z,0.70
2018-11-12T01:34:42.282Z,0.40
2018-11-12T01:37:17.832Z,0.40
2018-11-12T01:39:53.184Z,1.17
2018-11-12T01:42:28.401Z,0.68
2018-11-12T01:45:04.085Z,0.50
2018-11-12T01:47:39.602Z,0.50
2018-11-12T01:50:15.421Z,0.40
2018-11-12T01:52:50.804Z,0.40
2018-11-12T01:55:26.154Z,1.57
2018-11-12T01:58:01.552Z,0.50
2018-11-12T02:00:37.146Z,0.50
2018-11-12T02:03:12.663Z,0.60
2018-11-12T02:05:48.303Z,0.40
2018-11-12T02:08:23.861Z,0.70
2018-11-12T02:10:59.012Z,1.50
2018-11-12T02:13:34.751Z,2.25
2018-11-12T02:16:10.861Z,1.55
2018-11-12T02:18:46.031Z,3.12
2018-11-12T02:21:21.415Z,0.82
2018-11-12T02:23:56.828Z,0.50
2018-11-12T02:26:32.506Z,0.60
2018-11-12T02:29:08.044Z,0.70
2018-11-12T02:31:43.582Z,1.57
2018-11-12T02:34:19.007Z,0.60
2018-11-12T02:36:54.362Z,0.82
2018-11-12T02:39:30.006Z,0.53
2018-11-12T02:42:05.889Z,0.50
2018-11-12T02:44:41.095Z,1.02
2018-11-12T02:47:16.564Z,0.80
2018-11-12T02:49:52.155Z,0.60
2018-11-12T02:52:27.401Z,0.40
2018-11-12T02:55:02.752Z,1.52
2018-11-12T02:57:38.206Z,0.40
2018-11-12T03:00:16.687Z,0.60
2018-11-12T03:02:52.321Z,1.70
2018-11-12T03:05:27.913Z,1.07
2018-11-12T03:08:03.383Z,0.78
2018-11-12T03:10:38.793Z,0.40
2018-11-12T03:13:14.181Z,0.40
2018-11-12T03:15:49.724Z,1.32
2018-11-12T03:18:25.254Z,0.68
2018-11-12T03:21:00.741Z,1.47
2018-11-12T03:23:36.346Z,0.40
2018-11-12T03:26:11.896Z,0.88
2018-11-12T03:28:47.223Z,1.12
2018-11-12T03:31:22.882Z,0.90
2018-11-12T03:33:58.345Z,0.57
2018-11-12T03:36:33.844Z,0.95
2018-11-12T03:39:10.004Z,0.60
2018-11-12T03:41:45.564Z,0.78
2018-11-12T03:44:21.102Z,0.50
2018-11-12T03:46:56.685Z,0.60
2018-11-12T03:49:32.134Z,0.40
2018-11-12T03:52:07.340Z,0.65
2018-11-12T03:54:42.815Z,0.50
2018-11-12T03:57:18.111Z,1.82
2018-11-12T03:59:53.483Z,1.40
2018-11-12T04:02:29.002Z,0.88
2018-11-12T04:05:04.584Z,2.22
2018-11-12T04:07:40.716Z,1.10
2018-11-12T04:10:17.457Z,1.40
2018-11-12T04:12:52.811Z,2.62
2018-11-12T04:15:28.586Z,2.75
2018-11-12T04:18:03.826Z,2.35
2018-11-12T04:20:39.174Z,0.60
2018-11-12T04:23:14.624Z,0.93
2018-11-12T04:25:50.182Z,1.02
2018-11-12T04:28:25.471Z,0.68
2018-11-12T04:31:01.152Z,0.50
2018-11-12T04:33:36.653Z,0.98
2018-11-12T04:36:11.966Z,1.32
2018-11-12T04:38:47.351Z,0.75
2018-11-12T04:41:22.785Z,0.50
2018-11-12T04:43:58.202Z,1.75
2018-11-12T04:46:33.595Z,0.88
2018-11-12T04:49:09.054Z,0.53
2018-11-12T04:51:44.411Z,0.98
2018-11-12T04:54:19.724Z,1.20
2018-11-12T04:56:55.168Z,1.15
2018-11-12T04:59:30.712Z,0.95
2018-11-12T05:02:06.668Z,1.85
2018-11-12T05:04:42.024Z,1.87
2018-11-12T05:07:17.395Z,0.82
2018-11-12T05:09:52.894Z,0.60
2018-11-12T05:12:28.339Z,0.95
2018-11-12T05:15:04.009Z,1.70
2018-11-12T05:17:39.998Z,0.50
2018-11-12T05:20:17.544Z,0.50
2018-11-12T05:22:53.081Z,0.50
2018-11-12T05:25:29.584Z,1.25
2018-11-12T05:28:05.124Z,0.45
2018-11-12T05:30:40.542Z,0.68
2018-11-12T05:33:16.207Z,1.50
2018-11-12T05:35:51.842Z,0.40
2018-11-12T05:38:27.354Z,1.45
2018-11-12T05:41:02.702Z,0.50
2018-11-12T05:43:38.083Z,2.40
2018-11-12T05:46:13.465Z,1.90
2018-11-12T05:48:48.821Z,1.72
2018-11-12T05:51:24.247Z,1.20
2018-11-12T05:53:59.521Z,0.40
2018-11-12T05:56:34.766Z,1.22
2018-11-12T05:59:10.291Z,0.75
2018-11-12T06:01:45.546Z,2.47
2018-11-12T06:04:21.132Z,1.67
2018-11-12T06:06:56.733Z,1.67
2018-11-12T06:09:32.224Z,0.60
2018-11-12T06:12:07.649Z,0.90
2018-11-12T06:14:43.106Z,0.50
2018-11-12T06:17:18.630Z,0.70
2018-11-12T06:19:54.190Z,0.40
2018-11-12T06:22:29.734Z,0.62
2018-11-12T06:25:05.517Z,2.70
2018-11-12T06:27:41.045Z,1.95
2018-11-12T06:30:17.886Z,0.60
2018-11-12T06:32:53.131Z,0.72
2018-11-12T06:35:28.868Z,0.40
2018-11-12T06:38:04.313Z,2.77
2018-11-12T06:40:39.709Z,1.02
2018-11-12T06:43:15.381Z,1.35
2018-11-12T06:45:50.772Z,1.07
2018-11-12T06:48:26.282Z,1.07
2018-11-12T06:51:01.742Z,0.93
2018-11-12T06:53:37.091Z,0.72
2018-11-12T06:56:12.484Z,1.02
2018-11-12T06:58:47.929Z,1.02
2018-11-12T07:01:23.485Z,0.85
2018-11-12T07:03:58.908Z,0.53
2018-11-12T07:06:34.645Z,1.82
2018-11-12T07:09:11.964Z,0.82
2018-11-12T07:11:47.519Z,0.50
2018-11-12T07:14:23.036Z,0.70
2018-11-12T07:16:58.576Z,0.60
2018-11-12T07:19:33.855Z,2.20
2018-11-12T07:22:09.676Z,1.17
2018-11-12T07:24:45.241Z,1.50
2018-11-12T07:27:20.754Z,1.15
2018-11-12T07:29:56.167Z,0.40
2018-11-12T07:32:31.772Z,0.75
2018-11-12T07:35:08.328Z,0.50
2018-11-12T07:37:44.773Z,1.98
2018-11-12T07:40:20.424Z,0.50
2018-11-12T07:42:56.704Z,0.93
2018-11-12T07:45:32.546Z,0.93
2018-11-12T07:48:07.747Z,0.75
2018-11-12T07:50:43.063Z,0.50
2018-11-12T07:53:18.375Z,0.70
2018-11-12T07:55:53.611Z,0.50
2018-11-12T07:58:28.754Z,2.37
2018-11-12T08:01:04.194Z,16.45
2018-11-12T08:03:39.724Z,16.48
2018-11-12T08:06:15.078Z,18.05
2018-11-12T08:08:50.523Z,16.77
2018-11-12T08:11:26.082Z,18.30
2018-11-12T08:14:01.351Z,19.17
2018-11-12T08:16:36.785Z,17.32
2018-11-12T08:19:12.124Z,16.67
2018-11-12T08:21:47.725Z,16.67
2018-11-12T08:24:23.132Z,15.65
2018-11-12T08:26:58.314Z,18.05
2018-11-12T08:29:33.578Z,18.50
2018-11-12T08:32:08.978Z,17.32
2018-11-12T08:34:44.237Z,17.80
2018-11-12T08:37:19.681Z,16.15
2018-11-12T08:39:55.210Z,16.73
2018-11-12T08:42:31.501Z,16.80
2018-11-12T08:45:08.161Z,16.20
2018-11-12T08:47:45.057Z,15.78
2018-11-12T08:50:21.834Z,15.88
2018-11-12T08:52:57.967Z,15.85
2018-11-12T08:55:33.265Z,15.20
2018-11-12T08:58:08.759Z,15.50
2018-11-12T09:00:43.822Z,15.40
2018-11-12T09:03:19.469Z,14.47
2018-11-12T09:05:54.789Z,13.93
2018-11-12T09:08:30.223Z,14.55
2018-11-12T09:11:05.833Z,14.15
2018-11-12T09:13:41.510Z,14.20
2018-11-12T09:16:16.714Z,15.13
2018-11-12T09:18:52.044Z,14.95
2018-11-12T09:21:27.481Z,13.45
2018-11-12T09:24:03.032Z,14.20
2018-11-12T09:26:38.554Z,13.30
2018-11-12T09:29:13.849Z,11.80
2018-11-12T09:31:49.646Z,13.00
2018-11-12T09:34:25.001Z,12.60
2018-11-12T09:37:00.438Z,11.70
2018-11-12T09:39:35.790Z,12.90
2018-11-12T09:42:11.191Z,11.85
2018-11-12T09:44:46.563Z,12.60
2018-11-12T09:47:21.921Z,10.80
2018-11-12T09:49:57.304Z,11.63
2018-11-12T09:52:32.701Z,11.30
2018-11-12T09:55:09.495Z,11.45
2018-11-12T09:57:46.402Z,11.68
2018-11-12T10:00:21.763Z,12.10
2018-11-12T10:02:57.962Z,10.30
2018-11-12T10:05:34.390Z,11.10
2018-11-12T10:08:13.029Z,11.53
2018-11-12T10:10:54.197Z,10.75
2018-11-12T10:13:30.965Z,11.43
2018-11-12T10:16:07.738Z,11.88
2018-11-12T10:18:39.938Z,10.32
2018-11-12T10:21:15.385Z,10.32
2018-11-12T10:23:50.703Z,9.73
2018-11-12T10:26:25.955Z,9.58
2018-11-12T10:29:01.305Z,10.35
2018-11-12T10:31:36.738Z,11.45
2018-11-12T10:34:12.364Z,10.20
2018-11-12T10:36:47.674Z,9.35
2018-11-12T10:39:22.961Z,9.88
2018-11-12T10:41:58.557Z,9.95
2018-11-12T10:44:33.982Z,10.15
2018-11-12T10:47:09.453Z,8.75
2018-11-12T10:49:44.907Z,8.58
2018-11-12T10:52:20.278Z,8.83
2018-11-12T10:55:04.901Z,9.00
2018-11-12T10:57:31.393Z,9.93
2018-11-12T11:00:15.399Z,10.03
2018-11-12T11:02:55.744Z,9.80
2018-11-12T11:05:30.996Z,21.35
2018-11-12T11:08:06.381Z,9.25
2018-11-12T11:10:41.594Z,10.00
2018-11-12T11:13:17.071Z,27.60
2018-11-12T11:15:52.485Z,21.73
2018-11-12T11:18:27.767Z,17.45
2018-11-12T11:21:02.911Z,8.30
2018-11-12T11:23:38.225Z,9.28
2018-11-12T11:26:13.501Z,10.08
2018-11-12T11:28:48.691Z,10.05
2018-11-12T11:31:23.704Z,8.43
2018-11-12T11:33:59.280Z,10.45
2018-11-12T11:36:34.552Z,13.40
2018-11-12T11:39:10.227Z,7.90
2018-11-12T11:41:45.676Z,12.05
2018-11-12T11:44:21.031Z,7.22
2018-11-12T11:46:56.373Z,7.20
2018-11-12T11:49:31.705Z,7.87
2018-11-12T11:52:07.014Z,6.92
2018-11-12T11:54:42.353Z,6.30
2018-11-12T11:57:17.725Z,6.10
2018-11-12T11:59:53.104Z,7.05
2018-11-12T12:02:28.349Z,6.97
2018-11-12T12:05:03.956Z,7.25
2018-11-12T12:07:39.299Z,7.70
2018-11-12T12:10:15.358Z,6.15
2018-11-12T12:12:51.273Z,6.80
2018-11-12T12:15:26.844Z,6.60
2018-11-12T12:18:02.319Z,5.92
2018-11-12T12:20:37.887Z,7.10
2018-11-12T12:23:13.415Z,8.35
2018-11-12T12:25:49.318Z,8.23
2018-11-12T12:28:24.554Z,7.80
2018-11-12T12:31:00.039Z,8.03
2018-11-12T12:33:35.284Z,8.03
2018-11-12T12:36:10.901Z,7.83
2018-11-12T12:38:46.334Z,8.18
2018-11-12T12:41:21.818Z,0.62
2018-11-12T12:43:57.421Z,0.40
2018-11-12T12:46:32.641Z,0.40
2018-11-12T12:49:08.010Z,0.70
2018-11-12T12:51:43.439Z,0.40
2018-11-12T12:54:18.563Z,0.80
2018-11-12T12:56:54.043Z,1.02
2018-11-12T12:59:29.303Z,0.50
2018-11-12T13:02:04.729Z,0.40
2018-11-12T13:04:40.204Z,1.32
2018-11-12T13:07:15.313Z,0.85
2018-11-12T13:09:50.873Z,0.70
2018-11-12T13:12:26.305Z,0.82
2018-11-12T13:15:01.993Z,0.50
2018-11-12T13:17:37.394Z,0.50
2018-11-12T13:20:14.221Z,0.50
2018-11-12T13:22:49.805Z,0.60
2018-11-12T13:25:25.058Z,0.47
2018-11-12T13:28:00.268Z,0.57
2018-11-12T13:30:35.509Z,0.40
2018-11-12T13:33:10.781Z,0.53
2018-11-12T13:35:46.118Z,0.95
2018-11-12T13:38:21.272Z,0.60
2018-11-12T13:40:56.605Z,0.95
2018-11-12T13:43:31.964Z,1.40
2018-11-12T13:46:07.356Z,0.50
2018-11-12T13:48:42.890Z,0.50
2018-11-12T13:51:18.178Z,0.60
2018-11-12T13:53:53.644Z,0.40
2018-11-12T13:56:29.066Z,0.50
2018-11-12T13:59:04.698Z,0.60
2018-11-12T14:01:40.014Z,1.05
2018-11-12T14:04:15.496Z,0.70
2018-11-12T14:06:50.793Z,0.80
2018-11-12T14:09:26.272Z,1.12
2018-11-12T14:12:01.765Z,0.40
2018-11-12T14:14:37.204Z,0.50
2018-11-12T14:17:12.403Z,0.62
2018-11-12T14:19:47.591Z,0.57
2018-11-12T14:22:22.676Z,0.47
2018-11-12T14:24:57.819Z,0.60
2018-11-12T14:27:33.034Z,0.60
2018-11-12T14:30:09.898Z,0.98
2018-11-12T14:32:45.232Z,0.60
2018-11-12T14:35:20.865Z,0.50
2018-11-12T14:37:56.016Z,0.90
2018-11-12T14:40:31.464Z,0.40
2018-11-12T14:43:06.919Z,0.40
2018-11-12T14:45:42.294Z,0.40
2018-11-12T14:48:17.534Z,0.50
2018-11-12T14:50:52.993Z,0.50
2018-11-12T14:53:28.494Z,0.55
2018-11-12T14:56:03.993Z,0.78
2018-11-12T14:58:39.497Z,0.50
2018-11-12T15:01:14.852Z,0.78
2018-11-12T15:03:50.231Z,0.50
2018-11-12T15:06:25.703Z,0.50
2018-11-12T15:09:01.174Z,0.40
2018-11-12T15:11:36.626Z,1.25
2018-11-12T15:14:12.315Z,1.92
2018-11-12T15:16:47.631Z,0.78
2018-11-12T15:19:23.264Z,1.30
2018-11-12T15:21:58.831Z,0.50
2018-11-12T15:24:34.631Z,0.80
2018-11-12T15:27:10.211Z,0.70
2018-11-12T15:29:45.642Z,0.80
2018-11-12T15:32:21.060Z,2.35
2018-11-12T15:34:56.315Z,1.00
2018-11-12T15:37:32.156Z,0.82
2018-11-12T15:40:08.399Z,3.52
2018-11-12T15:42:43.966Z,0.80
2018-11-12T15:45:22.720Z,0.40
2018-11-12T15:47:58.075Z,0.40
2018-11-12T15:50:35.002Z,1.95
2018-11-12T15:53:10.470Z,0.80
2018-11-12T15:55:45.983Z,1.45
2018-11-12T15:58:21.096Z,0.98
2018-11-12T16:00:56.489Z,0.98
2018-11-12T16:03:31.831Z,0.40
2018-11-12T16:06:07.514Z,1.87
2018-11-12T16:08:42.903Z,0.40
2018-11-12T16:11:19.053Z,0.60
2018-11-12T16:13:54.542Z,0.72
2018-11-12T16:16:30.818Z,1.20
2018-11-12T16:19:06.999Z,0.78
2018-11-12T16:21:42.349Z,0.82
2018-11-12T16:24:22.073Z,2.05
2018-11-12T16:26:57.553Z,1.65
2018-11-12T16:29:32.830Z,0.80
2018-11-12T16:32:08.423Z,1.05
2018-11-12T16:34:43.949Z,0.98
2018-11-12T16:37:19.230Z,1.75
2018-11-12T16:39:54.675Z,0.57
2018-11-12T16:42:30.048Z,1.65
2018-11-12T16:45:05.190Z,1.67
2018-11-12T16:47:40.757Z,0.80
2018-11-12T16:50:16.574Z,0.80
2018-11-12T16:52:51.994Z,0.80
2018-11-12T16:55:27.689Z,1.60
2018-11-12T16:58:03.069Z,0.40
2018-11-12T17:00:38.406Z,0.40
2018-11-12T17:03:13.840Z,0.70
2018-11-12T17:05:49.169Z,0.50
2018-11-12T17:08:24.545Z,1.80
2018-11-12T17:11:00.226Z,0.98
2018-11-12T17:13:35.514Z,0.70
2018-11-12T17:16:10.989Z,0.50
2018-11-12T17:18:47.704Z,0.40
2018-11-12T17:21:23.000Z,2.20
2018-11-12T17:23:58.273Z,0.80
2018-11-12T17:26:33.542Z,1.40
2018-11-12T17:29:08.923Z,0.50
2018-11-12T17:31:44.328Z,0.60
2018-11-12T17:34:20.033Z,0.50
2018-11-12T17:36:57.414Z,0.60
2018-11-12T17:39:32.854Z,0.50
2018-11-12T17:42:08.224Z,0.78
2018-11-12T17:44:43.439Z,0.50
2018-11-12T17:47:18.827Z,2.55
2018-11-12T17:49:54.313Z,1.12
2018-11-12T17:52:29.521Z,1.02
2018-11-12T17:55:05.213Z,0.50
2018-11-12T17:57:40.620Z,0.70
2018-11-12T18:00:19.379Z,0.60
2018-11-12T18:02:54.896Z,1.70
2018-11-12T18:05:30.060Z,0.72
2018-11-12T18:08:05.711Z,1.95
2018-11-12T18:10:41.053Z,0.40
2018-11-12T18:13:16.375Z,1.55
2018-11-12T18:15:51.919Z,2.40
2018-11-12T18:18:27.246Z,1.37
2018-11-12T18:21:02.589Z,0.62
2018-11-12T18:23:37.865Z,0.70
2018-11-12T18:26:13.190Z,1.15
2018-11-12T18:28:48.538Z,0.42
2018-11-12T18:31:24.057Z,0.40
2018-11-12T18:33:59.349Z,0.60
2018-11-12T18:36:34.956Z,0.50
2018-11-12T18:39:10.590Z,0.40
2018-11-12T18:41:45.993Z,1.22
2018-11-12T18:44:21.233Z,0.80
2018-11-12T18:46:56.969Z,1.60
2018-11-12T18:49:32.651Z,0.50
2018-11-12T18:52:07.932Z,1.80
2018-11-12T18:54:43.298Z,2.33
2018-11-12T18:57:18.785Z,1.62
2018-11-12T18:59:54.166Z,1.42
2018-11-12T19:02:29.745Z,1.45
2018-11-12T19:05:06.102Z,1.25
2018-11-12T19:07:42.451Z,1.95
2018-11-12T19:10:22.311Z,0.50
2018-11-12T19:12:57.609Z,1.42
2018-11-12T19:15:38.833Z,0.70
2018-11-12T19:18:14.737Z,0.45
2018-11-12T19:20:50.069Z,0.90
2018-11-12T19:23:25.362Z,3.83
2018-11-12T19:26:01.081Z,1.80
2018-11-12T19:28:36.586Z,2.47
2018-11-12T19:31:11.909Z,0.60
2018-11-12T19:33:47.282Z,0.88
2018-11-12T19:36:22.849Z,2.95
2018-11-12T19:38:58.370Z,16.40
2018-11-12T19:41:33.962Z,17.48
2018-11-12T19:44:09.232Z,16.95
2018-11-12T19:46:44.725Z,15.70
2018-11-12T19:49:20.207Z,17.60
2018-11-12T19:51:55.587Z,14.15
2018-11-12T19:54:31.023Z,14.80
2018-11-12T19:57:06.795Z,14.78
2018-11-12T19:59:42.711Z,15.32
2018-11-12T20:02:18.053Z,14.90
2018-11-12T20:04:53.557Z,15.32
2018-11-12T20:07:28.900Z,13.93
2018-11-12T20:10:04.413Z,13.43
2018-11-12T20:12:40.202Z,17.10
2018-11-12T20:15:16.892Z,15.10
2018-11-12T20:17:53.042Z,15.70
2018-11-12T20:20:30.691Z,14.75
2018-11-12T20:23:06.120Z,13.83
2018-11-12T20:25:41.353Z,15.03
2018-11-12T20:28:16.809Z,14.43
2018-11-12T20:30:52.250Z,13.90
2018-11-12T20:33:27.784Z,14.35
2018-11-12T20:36:03.154Z,11.15
2018-11-12T20:38:38.434Z,15.65
2018-11-12T20:41:13.871Z,14.45
2018-11-12T20:43:48.914Z,11.50
2018-11-12T20:46:24.513Z,13.20
2018-11-12T20:48:59.835Z,12.90
2018-11-12T20:51:35.325Z,11.73
2018-11-12T20:54:10.634Z,9.98
2018-11-12T20:56:45.993Z,11.60
2018-11-12T20:59:21.622Z,11.97
2018-11-12T21:01:56.761Z,13.10
2018-11-12T21:04:32.134Z,13.40
2018-11-12T21:07:07.650Z,13.72
2018-11-12T21:09:43.130Z,12.50
2018-11-12T21:12:18.494Z,14.20
2018-11-12T21:14:53.904Z,13.08
2018-11-12T21:17:29.301Z,14.00
2018-11-12T21:20:04.873Z,13.45
2018-11-12T21:22:40.229Z,13.13
2018-11-12T21:25:17.065Z,12.85
2018-11-12T21:27:52.422Z,14.68
2018-11-12T21:30:28.767Z,15.28
2018-11-12T21:33:04.524Z,16.90
2018-11-12T21:35:40.502Z,15.88
2018-11-12T21:38:16.682Z,15.90
2018-11-12T21:40:52.070Z,16.55
2018-11-12T21:43:28.160Z,18.65
2018-11-12T21:46:03.554Z,18.45
2018-11-12T21:48:39.073Z,18.85
2018-11-12T21:51:14.400Z,19.60
2018-11-12T21:53:49.711Z,17.42
2018-11-12T21:56:25.981Z,18.00
2018-11-12T21:59:01.490Z,19.67
2018-11-12T22:01:37.042Z,16.70
2018-11-12T22:04:13.314Z,18.10
2018-11-12T22:06:48.934Z,19.40
2018-11-12T22:09:24.401Z,18.45
2018-11-12T22:11:59.869Z,19.57
2018-11-12T22:14:35.731Z,17.42
2018-11-12T22:17:11.575Z,19.67
2018-11-12T22:19:48.134Z,18.52
2018-11-12T22:22:23.678Z,16.97
2018-11-12T22:24:59.174Z,19.60
2018-11-12T22:27:35.031Z,18.75
2018-11-12T22:30:12.589Z,18.10
2018-11-12T22:32:49.030Z,18.00
2018-11-12T22:35:24.454Z,17.40
2018-11-12T22:38:00.093Z,15.43
2018-11-12T22:40:35.542Z,16.95
2018-11-12T22:43:10.905Z,16.55
2018-11-12T22:45:46.186Z,14.90
2018-11-12T22:48:21.484Z,18.92
2018-11-12T22:50:56.884Z,16.20
2018-11-12T22:53:32.544Z,16.15
2018-11-12T22:56:08.146Z,16.70
2018-11-12T22:58:44.980Z,17.10
2018-11-12T23:01:20.503Z,16.70
2018-11-12T23:03:56.085Z,16.45
2018-11-12T23:06:31.514Z,16.05
2018-11-12T23:09:21.404Z,17.10
2018-11-12T23:11:56.843Z,17.62
2018-11-12T23:14:32.512Z,15.88
2018-11-12T23:17:08.181Z,15.58
2018-11-12T23:19:43.813Z,16.42
2018-11-12T23:22:19.166Z,15.30
2018-11-12T23:24:54.551Z,17.27
2018-11-12T23:27:29.821Z,17.40
2018-11-12T23:30:05.844Z,15.88
2018-11-12T23:32:41.161Z,17.67
2018-11-12T23:35:17.944Z,18.77
2018-11-12T23:37:53.261Z,17.87
2018-11-12T23:40:28.531Z,19.42
2018-11-12T23:43:03.845Z,19.23
2018-11-12T23:45:39.385Z,15.88
2018-11-12T23:48:14.844Z,17.48
2018-11-12T23:50:50.331Z,18.42
2018-11-12T23:53:25.901Z,20.70
2018-11-12T23:56:01.461Z,19.10
2018-11-12T23:58:36.800Z,20.50
